Time;durP1;ratioP1;P1;durP2;ratioP2;P2;SDS_P1;SDS_P2;PMS_P1;PMS_P2;Temp;Humidity;BMP_temperature;BMP_pressure;BME280_temperature;BME280_humidity;BME280_pressure;Samples;Min_cycle;Max_cycle;Signal;HPM_P1;HPM_P2
2022/05/13 00:01:45;;;;;;;3.40;2.92;;;;;;;13.53;52.76;100967.16;5058319;28;20024;-28
2022/05/13 00:04:10;;;;;;;2.97;2.60;;;;;;;13.50;52.64;100969.88;5058850;28;20025;-29
2022/05/13 00:06:35;;;;;;;3.03;2.78;;;;;;;13.42;53.15;100960.25;5062705;28;20466;-28
2022/05/13 00:09:01;;;;;;;3.08;2.60;;;;;;;13.38;52.88;100963.84;5062906;28;20104;-29
2022/05/13 00:11:26;;;;;;;2.95;2.75;;;;;;;13.35;53.17;100971.84;5064394;28;20036;-28
2022/05/13 00:13:52;;;;;;;3.25;2.97;;;;;;;13.28;53.34;100963.13;5076114;28;20115;-29
2022/05/13 00:16:18;;;;;;;3.17;2.70;;;;;;;13.27;52.90;100971.09;5055572;28;20040;-28
2022/05/13 00:18:43;;;;;;;3.35;3.05;;;;;;;13.22;52.95;100963.19;5056564;28;20033;-29
2022/05/13 00:21:08;;;;;;;3.20;2.90;;;;;;;13.16;53.28;100950.03;5060069;28;20526;-28
2022/05/13 00:23:34;;;;;;;2.85;2.63;;;;;;;13.13;53.51;100972.16;5060884;28;20495;-29
2022/05/13 00:25:59;;;;;;;3.80;3.13;;;;;;;13.09;53.28;100970.47;5060562;28;20482;-28
2022/05/13 00:28:25;;;;;;;4.25;2.85;;;;;;;13.04;53.38;100961.72;5056055;28;20476;-28
2022/05/13 00:30:50;;;;;;;3.20;2.95;;;;;;;13.02;53.49;100968.78;5054439;28;20028;-29
2022/05/13 00:33:17;;;;;;;3.22;2.92;;;;;;;12.96;53.61;100962.69;5058621;28;20081;-28
2022/05/13 00:35:42;;;;;;;3.63;3.40;;;;;;;12.92;53.82;100953.06;5056618;28;20373;-28
2022/05/13 00:38:08;;;;;;;3.30;3.10;;;;;;;12.90;53.51;100954.84;5061574;28;20052;-28
2022/05/13 00:40:35;;;;;;;3.38;3.03;;;;;;;12.87;53.72;100962.81;5055479;28;20094;-29
2022/05/13 00:43:04;;;;;;;3.13;2.92;;;;;;;12.82;53.57;100959.38;5056600;28;20096;-29
2022/05/13 00:45:31;;;;;;;4.28;3.13;;;;;;;12.78;53.92;100952.38;5063262;28;20021;-28
2022/05/13 00:47:57;;;;;;;3.35;3.05;;;;;;;12.74;53.77;100943.56;5062852;28;20472;-28
2022/05/13 00:50:24;;;;;;;4.25;3.33;;;;;;;12.73;54.14;100951.56;5054888;28;20039;-28
2022/05/13 00:52:50;;;;;;;4.00;2.65;;;;;;;12.67;53.77;100942.78;5057405;28;20065;-29
2022/05/13 00:55:28;;;;;;;3.20;2.90;;;;;;;12.63;54.40;100935.78;5060567;28;20376;-28
2022/05/13 00:57:55;;;;;;;3.33;3.08;;;;;;;12.60;54.13;100933.19;5054146;28;20164;-28
2022/05/13 01:00:20;;;;;;;3.35;3.05;;;;;;;12.57;54.27;100930.56;5059944;28;20154;-28
2022/05/13 01:02:46;;;;;;;3.50;3.25;;;;;;;12.53;54.14;100929.75;5064573;28;20507;-28
2022/05/13 01:05:13;;;;;;;3.22;2.90;;;;;;;12.49;54.14;100922.75;5062262;28;20033;-28
2022/05/13 01:07:39;;;;;;;3.10;2.90;;;;;;;12.47;54.15;100923.69;5068573;28;20112;-28
2022/05/13 01:10:06;;;;;;;3.33;2.88;;;;;;;12.43;54.45;100928.13;5060321;28;20150;-28
2022/05/13 01:12:34;;;;;;;3.63;3.20;;;;;;;12.40;54.38;100930.78;5061115;28;20033;-28
2022/05/13 01:15:03;;;;;;;3.78;3.30;;;;;;;12.37;54.64;100918.50;5077870;28;20029;-28
2022/05/13 01:20:19;;;;;;;3.45;3.15;;;;;;;12.29;54.83;100910.66;5065186;28;20040;-28
2022/05/13 01:22:48;;;;;;;3.42;3.13;;;;;;;12.27;54.99;100917.72;5058595;28;20028;-28
2022/05/13 01:25:17;;;;;;;3.35;3.03;;;;;;;12.25;54.74;100929.22;5063053;28;20013;-28
2022/05/13 01:27:44;;;;;;;5.72;3.47;;;;;;;12.24;54.62;100924.84;5063746;28;20067;-28
2022/05/13 01:30:14;;;;;;;3.80;3.50;;;;;;;12.22;54.87;100926.63;5062304;28;20025;-29
2022/05/13 01:32:40;;;;;;;3.13;2.92;;;;;;;12.16;55.40;100917.88;5060314;28;20074;-29
2022/05/13 01:35:06;;;;;;;3.38;3.17;;;;;;;12.14;54.89;100922.28;5067730;28;20025;-29
2022/05/13 01:37:33;;;;;;;3.17;2.97;;;;;;;12.12;55.30;100924.09;5064437;28;20115;-27
2022/05/13 01:39:58;;;;;;;3.78;3.30;;;;;;;12.09;55.62;100918.84;5059475;28;20447;-28
2022/05/13 01:42:23;;;;;;;3.45;3.08;;;;;;;12.07;55.45;100920.59;5060340;28;20591;-28
2022/05/13 01:44:49;;;;;;;2.85;2.70;;;;;;;12.05;55.66;100919.72;5064137;28;20028;-28
2022/05/13 01:47:14;;;;;;;3.40;3.15;;;;;;;12.03;55.29;100917.09;5065828;28;20028;-28
2022/05/13 01:49:39;;;;;;;3.67;3.47;;;;;;;12.01;55.69;100916.22;5065014;28;20025;-28
2022/05/13 01:52:05;;;;;;;3.92;3.63;;;;;;;11.98;55.54;100911.00;5059256;28;20040;-28
2022/05/13 01:54:30;;;;;;;3.45;3.15;;;;;;;11.97;55.54;100913.66;5068109;28;20037;-28
2022/05/13 01:56:56;;;;;;;3.55;3.15;;;;;;;11.96;55.60;100912.78;5062357;28;20033;-27
2022/05/13 01:59:21;;;;;;;3.83;3.50;;;;;;;11.94;55.89;100919.84;5063384;28;20020;-28
2022/05/13 02:01:46;;;;;;;3.47;3.17;;;;;;;11.94;55.63;100917.22;5061457;28;20032;-28
2022/05/13 02:04:11;;;;;;;4.07;3.53;;;;;;;11.90;55.83;100919.00;5060124;28;20040;-27
2022/05/13 02:06:37;;;;;;;3.78;3.13;;;;;;;11.89;56.14;100919.91;5057678;28;20024;-29
2022/05/13 02:09:02;;;;;;;3.90;3.50;;;;;;;11.88;56.17;100920.81;5058892;28;20029;-28
2022/05/13 02:11:29;;;;;;;4.03;3.10;;;;;;;11.86;56.17;100919.03;5062967;28;20036;-28
2022/05/13 02:13:54;;;;;;;3.72;3.42;;;;;;;11.85;55.85;100920.81;5056998;28;20028;-28
2022/05/13 02:16:20;;;;;;;5.63;3.85;;;;;;;11.84;56.23;100913.78;5058426;28;20399;-28
2022/05/13 02:18:46;;;;;;;4.28;3.45;;;;;;;11.83;56.21;100919.94;5057660;28;20032;-28
2022/05/13 02:21:12;;;;;;;3.85;3.45;;;;;;;11.83;56.19;100916.47;5073629;28;20036;-27
2022/05/13 02:23:37;;;;;;;5.22;3.70;;;;;;;11.83;56.51;100921.75;5064239;28;20502;-28
2022/05/13 02:26:05;;;;;;;5.85;3.97;;;;;;;11.79;56.25;100912.94;5059460;28;20024;-28
2022/05/13 02:28:31;;;;;;;4.22;3.50;;;;;;;11.81;56.36;100911.19;5055589;28;20036;-28
2022/05/13 02:30:59;;;;;;;4.10;3.63;;;;;;;11.78;56.95;100908.56;5059446;28;20082;-27
2022/05/13 02:33:24;;;;;;;4.07;3.67;;;;;;;11.77;57.02;100914.75;5058988;28;20028;-28
2022/05/13 02:35:49;;;;;;;4.30;3.90;;;;;;;11.78;56.29;100908.56;5060562;28;20733;-28
2022/05/13 02:38:15;;;;;;;3.90;3.60;;;;;;;11.77;56.89;100906.81;5059622;28;20028;-28
2022/05/13 02:43:26;;;;;;;3.97;3.67;;;;;;;11.74;56.72;100910.34;5060346;28;20095;-29
2022/05/13 02:45:52;;;;;;;4.43;4.13;;;;;;;11.73;56.33;100905.97;5064212;28;20025;-28
2022/05/13 02:48:17;;;;;;;4.18;3.65;;;;;;;11.75;57.14;100905.94;5059438;28;20055;-29
2022/05/13 02:50:42;;;;;;;3.85;3.55;;;;;;;11.73;56.55;100902.44;5059493;28;20122;-28
2022/05/13 02:53:08;;;;;;;4.47;3.78;;;;;;;11.72;57.10;100913.91;5060728;28;20031;-28
2022/05/13 02:55:33;;;;;;;4.03;3.72;;;;;;;11.71;57.14;100902.47;5061782;28;20028;-28
2022/05/13 02:57:59;;;;;;;4.63;4.20;;;;;;;11.70;56.94;100906.00;5054038;28;20067;-28
2022/05/13 03:00:24;;;;;;;3.92;3.63;;;;;;;11.71;56.99;100901.59;5058881;28;20024;-28
2022/05/13 03:02:49;;;;;;;4.18;3.88;;;;;;;11.70;57.53;100910.41;5060710;28;20032;-28
2022/05/13 03:05:15;;;;;;;4.20;3.78;;;;;;;11.70;57.14;100910.41;5055118;28;20068;-28
2022/05/13 03:07:40;;;;;;;4.68;3.67;;;;;;;11.68;57.30;100903.34;5058392;28;20167;-28
2022/05/13 03:10:08;;;;;;;4.45;4.07;;;;;;;11.68;57.22;100898.06;5058421;28;20059;-27
2022/05/13 03:12:33;;;;;;;4.40;4.10;;;;;;;11.67;57.51;100901.63;5058443;28;20368;-28
2022/05/13 03:14:58;;;;;;;4.07;3.75;;;;;;;11.68;56.91;100907.78;5062394;28;20482;-28
2022/05/13 03:17:24;;;;;;;4.07;3.67;;;;;;;11.68;57.68;100902.50;5059988;28;20079;-28
2022/05/13 03:19:49;;;;;;;4.35;4.05;;;;;;;11.67;57.45;100906.91;5055136;28;20044;-28
2022/05/13 03:22:14;;;;;;;4.07;3.70;;;;;;;11.66;57.64;100901.63;5058898;28;20066;-28
2022/05/13 03:24:40;;;;;;;4.80;4.40;;;;;;;11.65;57.76;100900.78;5061720;28;20151;-27
2022/05/13 03:27:07;;;;;;;5.82;4.07;;;;;;;11.64;57.44;100896.34;5055298;28;20070;-29
2022/05/13 03:29:32;;;;;;;5.82;3.75;;;;;;;11.64;57.52;100900.78;5061769;28;20044;-27
2022/05/13 03:31:57;;;;;;;5.22;3.92;;;;;;;11.63;57.52;100904.28;5060030;28;20020;-28
2022/05/13 03:34:23;;;;;;;4.70;4.00;;;;;;;11.63;57.79;100902.53;5061298;28;20028;-28
2022/05/13 03:36:51;;;;;;;4.07;3.63;;;;;;;11.64;57.66;100906.06;5065191;28;20021;-28
2022/05/13 03:39:17;;;;;;;4.20;3.80;;;;;;;11.61;57.27;100901.66;5061454;28;20615;-28
2022/05/13 03:41:42;;;;;;;5.57;4.40;;;;;;;11.62;57.70;100903.44;5057429;28;20036;-29
2022/05/13 03:44:08;;;;;;;4.30;3.90;;;;;;;11.62;57.62;100908.72;5063612;28;20452;-28
2022/05/13 03:46:34;;;;;;;4.93;3.72;;;;;;;11.62;57.99;100906.06;5054624;28;20032;-28
2022/05/13 03:49:00;;;;;;;4.50;4.10;;;;;;;11.64;57.83;100909.56;5057840;28;20017;-28
2022/05/13 03:51:26;;;;;;;3.83;3.53;;;;;;;11.62;57.96;100908.72;5063159;28;20107;-27
2022/05/13 03:53:51;;;;;;;4.50;4.10;;;;;;;11.63;57.75;100904.28;5060521;28;20112;-27
2022/05/13 03:56:16;;;;;;;4.13;3.83;;;;;;;11.62;57.82;100907.84;5061732;28;20070;-28
2022/05/13 03:58:42;;;;;;;4.68;4.30;;;;;;;11.63;57.48;100915.75;5061191;28;20093;-28
2022/05/13 04:01:07;;;;;;;6.28;4.10;;;;;;;11.63;57.73;100920.16;5059070;28;20442;-28
2022/05/13 04:03:32;;;;;;;4.63;4.22;;;;;;;11.63;57.54;100905.19;5062336;28;20103;-28
2022/05/13 04:08:57;;;;;;;4.32;3.92;;;;;;;11.62;58.14;100908.72;5060640;28;21314;-28
2022/05/13 04:11:28;;;;;;;5.63;5.13;;;;;;;11.65;57.97;100913.09;5058844;28;20052;-28
2022/05/13 04:16:37;;;;;;;4.72;4.32;;;;;;;11.67;57.85;100912.19;5060616;28;20051;-28
2022/05/13 04:19:04;;;;;;;4.57;4.18;;;;;;;11.68;57.85;100908.66;5061035;28;20469;-26
2022/05/13 04:21:32;;;;;;;4.72;4.28;;;;;;;11.70;58.30;100913.06;5054115;28;20025;-28
2022/05/13 04:23:59;;;;;;;4.60;4.20;;;;;;;11.71;58.00;100912.16;5059906;28;20056;-29
2022/05/13 04:26:26;;;;;;;4.95;4.55;;;;;;;11.72;58.23;100909.50;5055778;28;20095;-28
2022/05/13 04:28:52;;;;;;;5.13;4.60;;;;;;;11.74;58.09;100896.28;5056090;28;20146;-28
2022/05/13 04:31:20;;;;;;;6.20;4.18;;;;;;;11.76;58.32;100902.41;5065467;28;20021;-28
2022/05/13 04:33:47;;;;;;;4.70;4.28;;;;;;;11.76;58.13;100899.75;5056860;28;20025;-28
2022/05/13 04:36:12;;;;;;;6.72;4.55;;;;;;;11.78;58.46;100898.00;5058798;28;20029;-28
2022/05/13 04:38:38;;;;;;;5.22;4.60;;;;;;;11.80;58.44;100897.09;5059235;28;20055;-28
2022/05/13 04:43:49;;;;;;;5.18;4.78;;;;;;;11.82;57.93;100902.34;5061879;28;20036;-28
2022/05/13 04:46:14;;;;;;;5.78;5.18;;;;;;;11.85;58.55;100904.97;5063962;28;20020;-28
2022/05/13 04:48:40;;;;;;;5.53;5.03;;;;;;;11.86;58.55;100912.00;5062352;28;20021;-28
2022/05/13 04:51:05;;;;;;;5.30;4.80;;;;;;;11.88;58.62;100910.22;5059203;28;20028;-28
2022/05/13 04:53:33;;;;;;;4.85;4.22;;;;;;;11.89;58.66;100911.09;5068012;28;20025;-28
2022/05/13 04:56:00;;;;;;;5.55;5.07;;;;;;;11.91;58.79;100910.16;5066424;28;20013;-28
2022/05/13 04:58:25;;;;;;;6.03;5.53;;;;;;;11.92;58.34;100911.94;5064262;28;20029;-28
2022/05/13 05:00:56;;;;;;;5.70;5.22;;;;;;;11.95;58.26;100916.31;5061114;28;20078;-28
2022/05/13 05:03:22;;;;;;;;;;;;;;;12.00;58.40;100916.28;5069278;28;20502;-28
2022/05/13 05:05:47;;;;;;;5.15;4.65;;;;;;;12.02;57.61;100917.13;5074275;28;19916;-28
2022/05/13 05:08:14;;;;;;;5.30;4.80;;;;;;;12.03;57.54;100918.84;5067854;28;20440;-28
2022/05/13 05:10:40;;;;;;;6.22;5.72;;;;;;;12.08;57.87;100921.50;5074628;28;20634;-27
2022/05/13 05:13:09;;;;;;;7.28;5.25;;;;;;;12.12;58.22;100920.56;5066821;28;20032;-28
2022/05/13 05:15:36;;;;;;;6.60;5.93;;;;;;;12.14;58.77;100910.84;5072160;28;20027;-28
2022/05/13 05:18:02;;;;;;;5.65;5.15;;;;;;;12.18;58.79;100916.06;5085906;28;20123;-28
2022/05/13 05:20:28;;;;;;;6.30;5.70;;;;;;;12.21;59.01;100914.28;5060385;28;20104;-28
2022/05/13 05:22:53;;;;;;;5.70;5.20;;;;;;;12.26;58.74;100915.09;5063776;28;20435;-29
2022/05/13 05:25:21;;;;;;;7.00;5.82;;;;;;;12.30;58.22;100911.53;5057672;28;20071;-27
2022/05/13 05:27:47;;;;;;;8.32;5.68;;;;;;;12.35;58.49;100917.66;5059299;28;20199;-28
2022/05/13 05:30:13;;;;;;;5.50;5.00;;;;;;;12.40;58.46;100918.47;5069955;28;20480;-29
2022/05/13 05:32:40;;;;;;;7.07;6.32;;;;;;;12.48;59.17;100914.84;5082321;28;20029;-28
2022/05/13 05:35:14;;;;;;;6.55;5.95;;;;;;;12.52;58.72;100917.44;5064481;28;20932;-28
2022/05/13 05:37:40;;;;;;;6.05;5.45;;;;;;;12.59;59.21;100912.94;5064445;28;20044;-29
2022/05/13 05:40:06;;;;;;;6.93;6.32;;;;;;;12.66;59.80;100919.00;5059332;28;20025;-28
2022/05/13 05:42:31;;;;;;;8.18;7.38;;;;;;;12.72;60.43;100918.94;5065002;28;20029;-29
2022/05/13 05:44:57;;;;;;;7.43;6.75;;;;;;;12.80;60.63;100924.97;5065360;28;20066;-27
2022/05/13 05:47:23;;;;;;;7.30;6.60;;;;;;;12.88;60.71;100919.59;5067296;28;20489;-28
2022/05/13 05:49:49;;;;;;;7.78;7.07;;;;;;;12.94;60.23;100914.19;5064611;28;20029;-28
2022/05/13 05:52:14;;;;;;;11.05;7.32;;;;;;;13.03;60.58;100914.94;5076185;28;20024;-28
2022/05/13 05:57:24;;;;;;;9.15;8.20;;;;;;;13.20;61.52;100918.19;5063058;28;20094;-29
2022/05/13 05:59:49;;;;;;;7.72;7.03;;;;;;;13.28;61.06;100917.19;5061292;28;20500;-28
2022/05/13 06:02:15;;;;;;;12.27;7.50;;;;;;;13.36;61.26;100915.28;5069152;28;20395;-28
2022/05/13 06:04:41;;;;;;;13.32;7.57;;;;;;;13.46;61.89;100921.31;5059783;28;20029;-28
2022/05/13 06:07:08;;;;;;;12.05;7.85;;;;;;;13.54;61.87;100923.88;5075797;28;20025;-29
2022/05/13 06:09:34;;;;;;;16.45;9.20;;;;;;;13.63;62.05;100922.84;5063394;28;20021;-29
2022/05/13 06:12:00;;;;;;;9.90;7.93;;;;;;;13.72;62.61;100923.53;5059783;28;20146;-29
2022/05/13 06:14:27;;;;;;;11.40;7.78;;;;;;;13.83;62.13;100925.09;5063009;28;20025;-29
2022/05/13 06:16:52;;;;;;;8.57;7.18;;;;;;;13.94;62.34;100922.28;5056424;28;20094;-28
2022/05/13 06:19:18;;;;;;;11.45;8.40;;;;;;;14.04;62.27;100929.13;5055813;28;20492;-28
2022/05/13 06:21:43;;;;;;;8.55;7.45;;;;;;;14.15;62.60;100930.69;5058218;28;20032;-28
2022/05/13 06:24:09;;;;;;;8.13;7.30;;;;;;;14.24;62.30;100931.38;5064536;28;20017;-28
2022/05/13 06:26:34;;;;;;;7.50;6.80;;;;;;;14.36;62.67;100926.72;5067732;28;20472;-27
2022/05/13 06:29:02;;;;;;;10.40;7.28;;;;;;;14.46;62.45;100917.69;5066040;28;20451;-27
2022/05/13 06:31:27;;;;;;;7.70;7.05;;;;;;;14.58;62.53;100923.63;5050014;28;21239;-28
2022/05/13 06:33:53;;;;;;;8.23;6.93;;;;;;;14.67;62.48;100920.75;5064652;28;20107;-28
2022/05/13 06:36:18;;;;;;;8.80;7.50;;;;;;;14.77;62.72;100921.44;5060051;28;20021;-28
2022/05/13 06:38:44;;;;;;;13.13;7.65;;;;;;;14.88;62.43;100927.38;5068244;28;20060;-28
2022/05/13 06:41:09;;;;;;;10.85;6.78;;;;;;;14.99;62.21;100935.13;5060041;28;20411;-28
2022/05/13 06:43:35;;;;;;;9.95;6.72;;;;;;;15.10;61.82;100932.19;5064660;28;20032;-28
2022/05/13 06:46:00;;;;;;;9.07;6.72;;;;;;;15.21;61.88;100934.59;5066623;28;20694;-29
2022/05/13 06:48:25;;;;;;;9.75;6.22;;;;;;;15.35;61.62;100936.03;5080173;28;20099;-28
2022/05/13 06:50:51;;;;;;;13.63;6.63;;;;;;;15.47;61.43;100941.03;5064537;28;20027;-28
2022/05/13 06:53:18;;;;;;;12.18;6.32;;;;;;;15.60;61.14;100924.78;5067193;28;20184;-28
2022/05/13 06:55:44;;;;;;;7.75;6.43;;;;;;;15.72;61.04;100931.56;5060452;28;20361;-29
2022/05/13 06:58:10;;;;;;;8.57;6.35;;;;;;;15.83;60.90;100933.94;5063463;28;20066;-28
2022/05/13 07:00:35;;;;;;;9.57;6.57;;;;;;;15.95;60.49;100925.66;5062874;28;20395;-28
2022/05/13 07:03:01;;;;;;;7.68;6.00;;;;;;;16.04;59.67;100919.19;5063563;28;20159;-29
2022/05/13 07:05:26;;;;;;;13.50;6.72;;;;;;;16.15;59.29;100924.22;5067133;28;20031;-28
2022/05/13 07:07:52;;;;;;;8.82;5.35;;;;;;;16.26;59.00;100923.91;5062241;28;20025;-28
2022/05/13 07:10:17;;;;;;;8.45;5.53;;;;;;;16.36;58.65;100920.06;5061380;28;20029;-28
2022/05/13 07:12:43;;;;;;;7.32;5.50;;;;;;;16.46;57.88;100920.66;5064304;28;20036;-28
2022/05/13 07:15:13;;;;;;;8.77;5.07;;;;;;;16.55;57.89;100931.03;5065252;28;20103;-28
2022/05/13 07:17:39;;;;;;;9.00;5.37;;;;;;;16.65;57.97;100930.75;5064743;28;20488;-28
2022/05/13 07:20:05;;;;;;;5.97;5.38;;;;;;;16.73;57.93;100928.72;5061203;28;20029;-29
2022/05/13 07:22:30;;;;;;;5.70;4.85;;;;;;;16.83;57.57;100939.09;5064151;28;20013;-28
2022/05/13 07:24:56;;;;;;;6.13;4.88;;;;;;;16.92;57.05;100944.16;5062797;28;20396;-29
2022/05/13 07:27:21;;;;;;;6.47;4.63;;;;;;;17.01;56.49;100954.50;5065494;28;20028;-29
2022/05/13 07:29:47;;;;;;;8.73;4.80;;;;;;;17.09;55.70;100943.63;5065139;28;20024;-29
2022/05/13 07:32:12;;;;;;;5.95;4.00;;;;;;;17.18;55.13;100946.00;5065628;28;20040;-28
2022/05/13 07:34:37;;;;;;;7.65;5.05;;;;;;;17.26;54.78;100943.09;5067821;28;20028;-28
2022/05/13 07:37:03;;;;;;;6.88;4.55;;;;;;;17.35;54.92;100946.38;5063762;28;20025;-28
2022/05/13 07:42:12;;;;;;;8.95;4.40;;;;;;;17.50;54.26;100940.53;5061543;28;20500;-28
2022/05/13 07:44:38;;;;;;;10.10;4.43;;;;;;;17.60;54.53;100942.88;5063842;28;20091;-29
2022/05/13 07:47:05;;;;;;;5.78;4.90;;;;;;;17.68;53.89;100938.16;5060901;28;20025;-28
2022/05/13 07:49:30;;;;;;;6.75;4.32;;;;;;;17.74;54.01;100943.25;5059458;28;20023;-28
2022/05/13 07:51:56;;;;;;;6.13;4.97;;;;;;;17.83;53.42;100936.72;5064162;28;20029;-28
2022/05/13 07:54:22;;;;;;;4.80;4.30;;;;;;;17.92;53.35;100940.88;5058977;28;20082;-28
2022/05/13 07:56:47;;;;;;;5.95;4.28;;;;;;;17.98;53.44;100932.66;5064365;28;20035;-28
2022/05/13 07:59:13;;;;;;;6.85;4.45;;;;;;;18.04;53.62;100940.44;5061293;28;20032;-29
2022/05/13 08:01:38;;;;;;;6.13;4.85;;;;;;;18.11;53.33;100937.56;5058815;28;20025;-28
2022/05/13 08:04:03;;;;;;;7.20;4.53;;;;;;;18.17;52.91;100932.88;5064798;28;20464;-28
2022/05/13 08:06:29;;;;;;;6.78;4.38;;;;;;;18.25;52.74;100932.59;5059425;28;20056;-28
2022/05/13 08:08:58;;;;;;;5.72;4.55;;;;;;;18.33;52.77;100937.63;5060976;28;20123;-28
2022/05/13 08:11:24;;;;;;;9.95;4.93;;;;;;;18.40;52.40;100949.84;5058595;28;20480;-28
2022/05/13 08:13:50;;;;;;;6.15;4.75;;;;;;;18.48;52.46;100952.22;5062553;28;20028;-28
2022/05/13 08:16:18;;;;;;;9.35;5.05;;;;;;;18.55;52.17;100945.72;5065330;28;20253;-27
2022/05/13 08:18:45;;;;;;;6.80;5.57;;;;;;;18.60;52.26;100945.53;5063187;28;20396;-28
2022/05/13 08:21:11;;;;;;;7.07;4.68;;;;;;;18.66;50.98;100952.44;5063167;28;20032;-27
2022/05/13 08:23:37;;;;;;;8.60;4.88;;;;;;;18.70;50.88;100951.38;5063359;28;20012;-28
2022/05/13 08:26:03;;;;;;;5.30;4.60;;;;;;;18.73;51.30;100959.28;5064319;28;20024;-28
2022/05/13 08:28:29;;;;;;;6.45;5.00;;;;;;;18.78;51.07;100954.66;5065094;28;20017;-27
2022/05/13 08:30:54;;;;;;;7.30;5.60;;;;;;;18.84;50.81;100959.72;5063761;28;20086;-28
2022/05/13 08:33:19;;;;;;;5.57;4.68;;;;;;;18.85;50.24;100953.44;5076313;28;20025;-28
2022/05/13 08:35:50;;;;;;;5.63;5.00;;;;;;;18.91;50.01;100959.50;5061070;28;20421;-28
2022/05/13 08:38:21;;;;;;;12.00;5.32;;;;;;;18.92;50.71;100958.56;5062116;28;20034;-29
2022/05/13 08:40:50;;;;;;;5.30;4.78;;;;;;;18.98;50.68;100959.19;5063162;28;20028;-28
2022/05/13 08:43:24;;;;;;;6.55;5.32;;;;;;;19.06;50.56;100964.25;5062297;28;20024;-28
2022/05/13 08:46:15;;;;;;;10.15;5.45;;;;;;;19.12;51.00;100946.22;5063667;28;20027;-27
2022/05/13 08:48:53;;;;;;;7.65;5.20;;;;;;;19.19;50.76;100955.72;5050481;28;20064;-29
2022/05/13 08:51:46;;;;;;;7.45;5.88;;;;;;;19.26;51.00;100956.34;5061460;28;20036;-28
2022/05/13 08:54:20;;;;;;;6.90;5.22;;;;;;;19.31;50.87;100949.88;5060349;28;20056;-28
2022/05/13 08:56:51;;;;;;;8.88;5.78;;;;;;;19.40;50.65;100958.47;5061146;28;20024;-28
2022/05/13 08:59:23;;;;;;;6.03;5.53;;;;;;;19.47;49.14;100965.28;5060977;28;20567;-28
2022/05/13 09:01:53;;;;;;;6.50;5.57;;;;;;;19.54;48.95;100961.41;5060062;28;20036;-28
2022/05/13 09:04:27;;;;;;;6.10;4.88;;;;;;;19.63;48.19;100953.97;5062482;28;20052;-28
2022/05/13 09:06:56;;;;;;;7.85;5.22;;;;;;;19.70;48.52;100955.41;5058013;28;20021;-27
2022/05/13 09:09:21;;;;;;;10.30;5.45;;;;;;;19.77;48.31;100959.56;5062440;28;20055;-28
2022/05/13 09:12:06;;;;;;;7.38;5.00;;;;;;;19.83;48.38;100961.97;5059836;28;20064;-27
2022/05/13 09:14:48;;;;;;;5.85;4.93;;;;;;;19.95;48.65;100957.03;5063368;28;20489;-29
2022/05/13 09:17:35;;;;;;;6.03;4.28;;;;;;;20.01;46.57;100964.81;5065099;28;20518;-27
2022/05/13 09:20:12;;;;;;;5.60;3.60;;;;;;;20.06;45.94;100968.16;5062614;28;20043;-28
2022/05/13 09:22:49;;;;;;;4.32;3.63;;;;;;;20.09;46.18;100960.00;5060676;28;20511;-28
2022/05/13 09:25:24;;;;;;;6.95;3.80;;;;;;;20.15;46.14;100961.53;5061708;28;20044;-29
2022/05/13 09:27:56;;;;;;;5.43;2.88;;;;;;;20.13;45.72;100958.91;5065342;28;20063;-29
2022/05/13 09:30:23;;;;;;;5.03;3.10;;;;;;;20.15;45.05;100950.81;5064980;28;20502;-28
2022/05/13 09:32:49;;;;;;;4.70;2.92;;;;;;;20.19;44.37;100956.88;5064319;28;20411;-28
2022/05/13 09:35:30;;;;;;;8.45;3.58;;;;;;;20.19;44.70;100947.06;5065623;28;20023;-28
2022/05/13 09:37:55;;;;;;;5.93;3.03;;;;;;;20.21;44.45;100941.63;5065573;28;20492;-28
2022/05/13 09:40:24;;;;;;;7.07;4.63;;;;;;;20.24;44.91;100941.50;5067020;28;20063;-28
2022/05/13 09:42:57;;;;;;;3.70;3.40;;;;;;;20.28;44.69;100936.84;5062858;28;20029;-29
2022/05/13 09:45:28;;;;;;;6.70;4.45;;;;;;;20.33;45.98;100938.38;5064542;28;20481;-28
2022/05/13 09:48:06;;;;;;;7.32;3.80;;;;;;;20.36;45.40;100926.66;5063743;28;20020;-28
2022/05/13 09:50:39;;;;;;;6.38;4.35;;;;;;;20.37;45.47;100937.31;5064103;28;20021;-28
2022/05/13 09:53:15;;;;;;;4.75;3.63;;;;;;;20.36;45.22;100930.22;5066132;28;20077;-28
2022/05/13 09:55:41;;;;;;;6.53;4.15;;;;;;;20.38;45.07;100941.72;5064119;28;20057;-28
2022/05/13 09:58:26;;;;;;;4.20;3.78;;;;;;;20.41;44.72;100931.81;5064313;28;20060;-28
2022/05/13 10:00:55;;;;;;;3.97;3.50;;;;;;;20.42;44.84;100931.75;5062028;28;20025;-27
2022/05/13 10:03:29;;;;;;;4.47;3.78;;;;;;;20.48;45.12;100915.34;5064619;28;20099;-28
2022/05/13 10:06:17;;;;;;;7.30;4.05;;;;;;;20.51;45.20;100903.66;5060738;28;20024;-28
2022/05/13 10:08:51;;;;;;;6.60;3.85;;;;;;;20.54;45.29;100908.00;5077608;28;20033;-29
2022/05/13 10:14:28;;;;;;;5.22;3.42;;;;;;;20.62;45.11;100914.72;5066524;28;20059;-28
2022/05/13 10:16:54;;;;;;;5.50;4.10;;;;;;;20.64;44.42;100912.84;5063221;28;20396;-29
2022/05/13 10:19:28;;;;;;;5.25;3.30;;;;;;;20.67;43.51;100905.59;5066036;28;20064;-27
2022/05/13 10:22:03;;;;;;;5.95;3.30;;;;;;;20.69;43.16;100911.75;5081810;28;20012;-29
2022/05/13 10:24:41;;;;;;;3.67;3.17;;;;;;;20.71;43.21;100909.88;5065325;28;20687;-28
2022/05/13 10:27:09;;;;;;;7.25;3.80;;;;;;;20.72;43.25;100914.28;5067413;28;20033;-26
2022/05/13 10:29:39;;;;;;;4.53;3.55;;;;;;;20.68;43.62;100910.00;5067604;28;20033;-26
2022/05/13 10:32:21;;;;;;;4.60;3.92;;;;;;;20.74;43.16;100913.25;5065411;28;20025;-26
2022/05/13 10:34:53;;;;;;;6.30;3.38;;;;;;;20.77;43.28;100923.84;5065387;28;20028;-25
2022/05/13 10:37:30;;;;;;;5.55;3.45;;;;;;;20.79;43.24;100918.41;5062616;28;20032;-26
2022/05/13 10:40:03;;;;;;;6.03;4.03;;;;;;;20.79;43.78;100921.09;5064150;28;20024;-26
2022/05/13 10:42:36;;;;;;;7.28;3.45;;;;;;;20.83;44.11;100928.03;5066247;28;20565;-26
2022/05/13 10:45:05;;;;;;;5.35;3.85;;;;;;;20.84;43.81;100929.75;5062388;28;20021;-26
2022/05/13 10:47:37;;;;;;;3.92;3.38;;;;;;;20.87;43.54;100932.28;5063323;28;20120;-26
2022/05/13 10:50:04;;;;;;;3.90;3.40;;;;;;;20.91;43.86;100927.69;5062075;28;20024;-26
2022/05/13 10:53:00;;;;;;;4.22;3.58;;;;;;;20.96;44.02;100932.81;5066242;28;20026;-26
2022/05/13 10:55:29;;;;;;;5.10;3.90;;;;;;;20.99;44.11;100928.19;5066824;28;20020;-26
2022/05/13 10:58:22;;;;;;;4.35;3.47;;;;;;;21.05;43.29;100932.38;5067689;28;20020;-25
2022/05/13 11:01:09;;;;;;;9.18;3.78;;;;;;;21.07;43.78;100933.16;5065314;28;20107;-26
2022/05/13 11:04:11;;;;;;;7.68;3.58;;;;;;;21.11;43.78;100945.47;5065255;28;20051;-25
2022/05/13 11:06:55;;;;;;;6.60;3.70;;;;;;;21.18;43.83;100923.72;5060897;28;20514;-26
2022/05/13 11:09:46;;;;;;;8.68;3.60;;;;;;;21.24;43.02;100928.78;5064809;28;20035;-26
2022/05/13 11:12:30;;;;;;;11.25;3.45;;;;;;;21.29;42.85;100932.09;5064097;28;20043;-26
2022/05/13 11:15:35;;;;;;;3.70;3.10;;;;;;;21.34;42.29;100932.72;5047401;28;20075;-26
2022/05/13 11:18:37;;;;;;;3.72;2.83;;;;;;;21.39;41.57;100933.38;5052807;28;20089;-26
2022/05/13 11:21:27;;;;;;;5.53;2.80;;;;;;;21.46;40.81;100933.91;5080821;28;20056;-26
2022/05/13 11:27:28;;;;;;;4.28;2.40;;;;;;;21.58;41.13;100932.44;5066400;28;20074;-26
2022/05/13 11:30:18;;;;;;;3.20;2.90;;;;;;;21.63;41.08;100941.09;5080063;28;20044;-26
2022/05/13 11:32:57;;;;;;;4.72;2.65;;;;;;;21.69;41.03;100942.59;5071670;28;20036;-26
2022/05/13 11:35:40;;;;;;;4.35;2.47;;;;;;;21.74;39.43;100958.50;5065760;28;20479;-26
2022/05/13 11:38:20;;;;;;;3.22;2.72;;;;;;;21.76;38.52;100956.59;5060297;28;20048;-26
2022/05/13 11:41:08;;;;;;;4.40;2.88;;;;;;;21.74;38.87;100943.25;5065664;28;20024;-27
2022/05/13 11:43:49;;;;;;;4.13;2.60;;;;;;;21.76;38.12;100953.91;5079770;28;20028;-29
2022/05/13 11:46:25;;;;;;;3.33;2.63;;;;;;;21.84;38.26;100940.09;5064591;28;20020;-28
2022/05/13 11:48:52;;;;;;;7.38;3.20;;;;;;;21.87;38.33;100958.75;5064254;28;20048;-29
2022/05/13 11:51:25;;;;;;;4.95;2.47;;;;;;;21.87;37.76;100959.59;5078285;28;20691;-29
2022/05/13 11:54:01;;;;;;;3.53;2.72;;;;;;;21.91;37.71;100963.84;5062859;28;20035;-29
2022/05/13 11:56:26;;;;;;;6.00;2.63;;;;;;;21.94;37.90;100961.97;5060553;28;20029;-28
2022/05/13 11:59:09;;;;;;;6.57;2.80;;;;;;;22.04;38.45;100965.91;5060009;28;20111;-27